Main page
METAR-TAF:

METAR-TAF

Airports :

Erfurt–Weimar Airport

Erfurt, Germany

latitude: 50-59N, longitude: 010-58E, elevation: 315 m

Current weather observation

The report was made 23 minutes ago, at 07:20 UTC
Wind 2 kt from variable directions
Temperature 11°C
Humidity 62%
Pressure 1031 hPa
Visibility 10 km or more
no clouds below 1500 m and no cumulonimbus

METAR: EDDE 190720Z VRB02KT CAVOK 11/04 Q1031 NOSIG

Time: 09:43 (07:43 UTC)

Forecast

The report was made 2 hours and 43 minutes ago, at 05:00 UTC
Forecast valid from 19 at 06 UTC to 20 at 06 UTC
Wind 3 kt from variable directions
Visibility 10 km or more
no clouds below 1500 m and no cumulonimbus
Becoming
from 19 at 08 UTC to 19 at 10 UTC
Wind 10 kt from the East/Northeast
Becoming
from 19 at 18 UTC to 19 at 20 UTC
Wind 4 kt from the Northeast

TAF: EDDE 190500Z 1906/2006 VRB03KT CAVOK BECMG 1908/1910 07010KT BECMG 1918/1920 05004KT

Weather observations and forecasts of more than 4000 airports (METAR and TAF reports).

The available stations are represented by yellow and red dots on the map.

Hover mouse over dot to see the name of the station.

Then click to see weather observations and forecasts.

To change the map : click on the green buttons with a black cross to zoom in, on the green button with a dash to zoom out, or on the green arrows for adjacent maps.


METAR-TAF: